Nearby Airport METAR Reports

 

KVSF - Springfield, Vermont, USA
Distance from station: WSW 8mi, 12km
Updated: 8:54am
Clear
Clear
 Wind from E
Wind: E 5 mph , 7 km/h
Temperature: 21°F , -6°C
Wind Chill: 14°F , -10°C
Dew Point: 18°F , -8°C
Humidity: 86%
Barometer: 30.46 inHg , 1031.5 hPa
Clouds: Clear
Visibility: 10 miles , 16 km
2018/02/19 13:54 KVSF 191354Z AUTO 08004KT 10SM CLR M06/M08 A3046 RMK AO2 SLP327 T10561078
KLEB - Lebanon, New Hampshire, USA
Distance from station: N 18mi, 29km
Updated: 8:53am
Clear
Clear
 Wind from S
Wind: S 14 mph , 22 km/h
Temperature: 30°F , -1°C
Wind Chill: 19°F , -7°C
Dew Point: 21°F , -6°C
Humidity: 69%
Barometer: 30.45 inHg , 1031.2 hPa
Clouds: Clear
Visibility: 10 miles , 16 km
2018/02/19 13:53 KLEB 191353Z 18012KT 10SM CLR M01/M06 A3045 RMK AO2 SLP323 T10061061
KRUT - Rutland State, Vermont, USA
Distance from station: WNW 31mi, 50km
Updated: 8:56am
Clear
Clear
 Wind from SE
Wind: SE 8 mph , 13 km/h
Temperature: 34°F , 1°C
Wind Chill: 27°F , -3°C
Dew Point: 19°F , -7°C
Humidity: 56%
Barometer: 30.39 inHg , 1029.1 hPa
Clouds: Clear
Visibility: 10 miles , 16 km
2018/02/19 13:56 KRUT 191356Z AUTO 14007KT 10SM CLR 01/M07 A3039 RMK AO2 SLP314 T00111072 FZRANO $
 
KEEN - Keene/Dillant, New Hampshire, USA
Distance from station: S 34mi, 55km
Updated: 8:56am
Few Clouds
Few Clouds
 Wind from calm
Wind: Calm
Temperature: 30°F , -1°C
Dew Point: 28°F , -2°C
Humidity: 93%
Barometer: 30.50 inHg , 1032.8 hPa
Clouds: Few Clouds
Visibility: 10 miles , 16 km
Cloud details: Few Clouds 2100 ft
2018/02/19 13:56 KEEN 191356Z AUTO 00000KT 10SM FEW021 M01/M02 A3050 RMK AO2 SLP350 T10061022 FZRANO
K1P1 - Plymouth, New Hampshire, USA
Distance from station: NE 42mi, 67km
Updated: 9:15am
Clear
Clear
 Wind from calm
Wind: Calm
Temperature: 19°F , -7°C
Dew Point: 18°F , -8°C
Humidity: 93%
Barometer: 30.51 inHg , 1033.2 hPa
Clouds: Clear
Visibility: 10 miles , 16 km
2018/02/19 14:15 K1P1 191415Z AUTO 00000KT 10SM CLR M07/M08 A3051 RMK AO2 T10731079
KAFN - Jaffrey, New Hampshire, USA
Distance from station: SSE 44mi, 70km
Updated: 8:52am
Clear
Clear
 Wind from S
Wind: S 10 mph , 17 km/h, Gust: 16 mph , 26 km/h
Temperature: 32°F , 0°C
Wind Chill: 24°F , -4°C
Dew Point: 25°F , -4°C
Humidity: 75%
Barometer: 30.45 inHg , 1031.2 hPa
Clouds: Clear
Visibility: 10 miles , 16 km
2018/02/19 13:52 KAFN 191352Z AUTO 19009G14KT 10SM CLR 00/M04 A3045 RMK AO2 SLP331 T00001039
 
KCON - Concord, New Hampshire, USA
Distance from station: ESE 45mi, 73km
Updated: 8:51am
Clear
Clear
 Wind from calm
Wind: Calm
Temperature: 27°F , -3°C
Dew Point: 23°F , -5°C
Humidity: 86%
Barometer: 30.49 inHg , 1032.5 hPa
Clouds: Clear
Visibility: 10 miles , 16 km
2018/02/19 13:51 KCON 191351Z AUTO 00000KT 10SM CLR M03/M05 A3049 RMK AO2 SLP330 T10331050
KLCI - Laconia Muni, New Hampshire, USA
Distance from station: ENE 49mi, 80km
Updated: 8:56am
Clear
Clear
 Wind from E
Wind: E 3 mph , 6 km/h
Temperature: 21°F , -6°C
Dew Point: 18°F , -8°C
Humidity: 86%
Barometer: 30.50 inHg , 1032.8 hPa
Clouds: Clear
Visibility: 10 miles , 16 km
2018/02/19 13:56 KLCI 191356Z AUTO 08003KT 10SM CLR M06/M08 A3050 RMK AO2 SLP348 T10611083 FZRANO
KDDH - Bennington, Vermont, USA
Distance from station: SW 55mi, 89km
Updated: 8:54am
Clear
Clear
 Wind from S
Wind: S 9 mph , 15 km/h
Temperature: 36°F , 2°C
Wind Chill: 29°F , -2°C
Dew Point: 21°F , -6°C
Humidity: 56%
Barometer: 30.43 inHg , 1030.5 hPa
Clouds: Clear
Visibility: 10 miles , 16 km
2018/02/19 13:54 KDDH 191354Z AUTO 17008KT 10SM CLR 02/M06 A3043 RMK AO2 SLP317 T00221061
 
K6B0 - Middlebury, Vermont, USA
Distance from station: NW 56mi, 90km
Updated: 8:55am
Clear
Clear
 Wind from SSW
Wind: SSW 12 mph , 19 km/h
Temperature: 32°F , 0°C
Wind Chill: 23°F , -5°C
Dew Point: 19°F , -7°C
Humidity: 60%
Barometer: 30.39 inHg , 1029.1 hPa
Clouds: Clear
Visibility: 10 miles , 16 km
2018/02/19 13:55 K6B0 191355Z AUTO 20010KT 10SM CLR 00/M07 A3039 RMK AO2 T00001067
KMHT - Manchester, New Hampshire, USA
Distance from station: ESE 56mi, 90km
Updated: 8:53am
Partly cloudy
Partly cloudy
 Wind from WSW
Wind: WSW 3 mph , 6 km/h
Temperature: 27°F , -3°C
Dew Point: 21°F , -6°C
Humidity: 80%
Barometer: 30.50 inHg , 1032.8 hPa
Clouds: Partly cloudy
Visibility: 10 miles , 16 km
Cloud details: Partly cloudy 25000 ft
2018/02/19 13:53 KMHT 191353Z 24003KT 10SM SCT250 M03/M06 A3050 RMK AO2 SLP348 T10281061
KORE - Orange, Massachusetts, USA
Distance from station: S 56mi, 90km
Updated: 8:52am
Clear
Clear
 Wind from calm
Wind: Calm
Temperature: 25°F , -4°C
Dew Point: 23°F , -5°C
Humidity: 93%
Barometer: 30.50 inHg , 1032.8 hPa
Clouds: Clear
Visibility: 10 miles , 16 km
2018/02/19 13:52 KORE 191352Z AUTO 00000KT 10SM CLR M04/M05 A3050 RMK AO2 SLP338 T10391050
 
KMPV - Montpelier/Barre, Vermont, USA
Distance from station: N 58mi, 93km
Updated: 8:51am
Clear
Clear
 Wind from S
Wind: S 5 mph , 7 km/h
Temperature: 28°F , -2°C
Wind Chill: 22°F , -6°C
Dew Point: 19°F , -7°C
Humidity: 69%
Barometer: 30.40 inHg , 1029.5 hPa
Clouds: Clear
Visibility: 10 miles , 16 km
2018/02/19 13:51 KMPV 191351Z AUTO 18004KT 10SM CLR M02/M07 A3040 RMK AO2 SLP313 T10171067
KASH - Nashua/Boire Fld, New Hampshire, USA
Distance from station: SE 59mi, 95km
Updated: 8:56am
Clear
Clear
 Wind from varies
Wind: varies 3 mph , 6 km/h
Temperature: 30°F , -1°C
Dew Point: 28°F , -2°C
Humidity: 93%
Barometer: 30.52 inHg , 1033.5 hPa
Clouds: Clear
Visibility: 10 miles , 16 km
2018/02/19 13:56 KASH 191356Z VRB03KT 10SM CLR M01/M02 A3052 RMK AO2 SLP347 T10061017
KAQW - North Adams, Massachusetts, USA
Distance from station: SW 62mi, 99km
Updated: 8:52am
Clear
Clear
 Wind from varies
Wind: varies 3 mph , 6 km/h
Temperature: 34°F , 1°C
Dew Point: 21°F , -6°C
Humidity: 60%
Barometer: 30.46 inHg , 1031.5 hPa
Clouds: Clear
Visibility: 10 miles , 16 km
2018/02/19 13:52 KAQW 191352Z AUTO VRB03KT 10SM CLR 01/M06 A3046 RMK AO2 SLP325 T00111061
 
KGFL - Glens Falls, New York, USA
Distance from station: W 63mi, 101km
Updated: 8:53am
Clear
Clear
 Wind from SSW
Wind: SSW 10 mph , 17 km/h
Temperature: 32°F , 0°C
Wind Chill: 24°F , -4°C
Dew Point: 21°F , -6°C
Humidity: 64%
Barometer: 30.43 inHg , 1030.5 hPa
Clouds: Clear
Visibility: 10 miles , 16 km
2018/02/19 13:53 KGFL 191353Z AUTO 20009KT 10SM CLR 00/M06 A3043 RMK AO2 SLP315 T00001061
KFIT - Fitchburg, Massachusetts, USA
Distance from station: SSE 65mi, 105km
Updated: 8:52am
Clear
Clear
 Wind from SE
Wind: SE 7 mph , 11 km/h
Temperature: 34°F , 1°C
Wind Chill: 28°F , -2°C
Dew Point: 27°F , -3°C
Humidity: 75%
Barometer: 30.51 inHg , 1033.2 hPa
Clouds: Clear
Visibility: 10 miles , 16 km
2018/02/19 13:52 KFIT 191352Z AUTO 14006KT 10SM CLR 01/M03 A3051 RMK AO2 SLP337 T00111033 TSNO
KDAW - Rochester, New Hampshire, USA
Distance from station: E 73mi, 118km
Updated: 8:51am
Clear
Clear
 Wind from calm
Wind: Calm
Temperature: 28°F , -2°C
Dew Point: 21°F , -6°C
Humidity: 74%
Barometer: 30.49 inHg , 1032.5 hPa
Clouds: Clear
Visibility: 10 miles , 16 km
2018/02/19 13:51 KDAW 191351Z AUTO 00000KT 10SM CLR M02/M06 A3049 RMK AO2 SLP327 T10171056
 
K1V4 - St. Johnsbury, Vermont, USA
Distance from station: NNE 74mi, 119km
Updated: 8:54am

 
Temperature: 18°F , -8°C
Dew Point: 14°F , -10°C
Humidity: 86%
Barometer: 30.42 inHg , 1030.1 hPa
2018/02/19 13:54 K1V4 191354Z AUTO M08/M10 A3042 RMK AO1 SLP318 T10831100
KLWM - Lawrence, Massachusetts, USA
Distance from station: SE 77mi, 124km
Updated: 8:54am
Clear
Clear
 Wind from SW
Wind: SW 6 mph , 9 km/h
Temperature: 34°F , 1°C
Wind Chill: 29°F , -2°C
Dew Point: 23°F , -5°C
Humidity: 65%
Barometer: 30.54 inHg , 1034.2 hPa
Clouds: Clear
Visibility: 10 miles , 16 km
2018/02/19 13:54 KLWM 191354Z 22005KT 10SM CLR 01/M05 A3054 RMK AO2 SLP342 T00111050

free counter page views since 4/29/2009